Kuwait City, Kuwait
Current Conditions -  °F | °C
As of 4:00 PM on Thursday 30 Oct 2014 (Local Time) from OKBK Reporting Station
Broken Clouds Broken Clouds  
Wind Chill: 82°   Ceiling: 8000
Heat Index: 85°   Visibility: 5mi
Dew Point: 66°   Wind: 8mph
Humidity: 58%   Direction: 70°ENE
Pressure: 29.85"   Gusts: NA
Location:  29.22°N, 47.98°E
Report Text: OKBK 301300Z 07007KT 8000 SCT030 BKN080 28/19 Q1011 NOSIG
Loading
Personal Weather Stations






























Interactive Weather Map
Tropical Storm Tracking
New forecast layout! Learn more

10-Day Weather Forecast

Advertisements
Track Severe Weather on mobile